»·PEaware :: WAT175 KLAS-KPHX

WAT175 :: KLAS-KPHX

FLIGHT INFORMATION

Flight Status: Arrived
Operator: Unknown
More flights by this operator :: More flights under this callsign
Pilot: Michael C. (27126)
Aircraft: BOEING 737-800
(B738)
More flights by this aircraft type
Origin: KLAS McCarran Intl
United States
Destination: KPHX Phoenix Sky Harbor Intl
United States
More flights between these airports :: More routes between these airports
Route: +PRFUM4 PRFUM WOTRO BRUSR1
File this flight plan on PilotEdge
Remarks: RMK / SIMBRIEF
Altitude:
(Current/Filed)
31,000ft
Speed:
(Current/Filed)
441kts
Departed: 28-Jul-20 07:18 PM
Arrived: 28-Jul-20 08:03 PM
Distance/Time
Traveled:
222nm/0:44
Distance/Time
To Go:
Arrived

Flight Plot

Page will automatically refresh every two minutes.


Map Options




Map Legend


Flown Route
Filed Route
Departure Airport
Arrival Airport
Navaid (VOR, NDB)
Fix

Horizontal Profiles

Position Reports

Time Latitude Longitude Heading Altitude Ground
Speed
28-Jul-20 18:41 36.081368 -115.147838 61 2121ft 0kts
28-Jul-20 18:42 36.081368 -115.147838 61 2121ft 0kts
28-Jul-20 18:43 36.081368 -115.147838 61 2121ft 0kts
28-Jul-20 18:44 36.081368 -115.147838 61 2121ft 0kts
28-Jul-20 18:45 36.081368 -115.147838 61 2121ft 0kts
28-Jul-20 18:46 36.081368 -115.147838 61 2121ft 0kts
28-Jul-20 18:47 36.081368 -115.147838 61 2121ft 0kts
28-Jul-20 18:48 36.081368 -115.147838 61 2121ft 0kts
28-Jul-20 18:49 36.081368 -115.147838 61 2121ft 0kts
28-Jul-20 18:50 36.081368 -115.147838 61 2121ft 0kts
28-Jul-20 18:51 36.081368 -115.147838 61 2121ft 0kts
28-Jul-20 18:52 36.081368 -115.147838 61 2121ft 0kts
28-Jul-20 18:53 36.081368 -115.147838 61 2121ft 0kts
28-Jul-20 18:54 36.081368 -115.147838 61 2121ft 0kts
28-Jul-20 18:55 36.081368 -115.147838 61 2121ft 0kts
28-Jul-20 18:56 36.081368 -115.147838 61 2121ft 0kts
28-Jul-20 18:57 36.081368 -115.147838 61 2121ft 0kts
28-Jul-20 18:58 36.081368 -115.147838 61 2121ft 0kts
28-Jul-20 18:59 36.081368 -115.147838 61 2121ft 0kts
28-Jul-20 19:00 36.081368 -115.147838 61 2121ft 0kts
28-Jul-20 19:01 36.081368 -115.147838 61 2121ft 0kts
28-Jul-20 19:02 36.081368 -115.147838 61 2121ft 0kts
28-Jul-20 19:03 36.081250 -115.148219 89 2121ft 2kts
28-Jul-20 19:04 36.081502 -115.148742 155 2121ft 1kts
28-Jul-20 19:05 36.081557 -115.148771 156 2121ft 0kts
28-Jul-20 19:06 36.080383 -115.148108 153 2121ft 2kts
28-Jul-20 19:07 36.079638 -115.147667 155 2121ft 0kts
28-Jul-20 19:09 36.078806 -115.147180 143 2121ft 11kts
28-Jul-20 19:10 36.078264 -115.141901 90 2121ft 19kts
28-Jul-20 19:11 36.078278 -115.136049 89 2121ft 15kts
28-Jul-20 19:12 36.078276 -115.131210 90 2121ft 13kts
28-Jul-20 19:13 36.078297 -115.127192 89 2121ft 12kts
28-Jul-20 19:14 36.078263 -115.123915 90 2121ft 7kts
28-Jul-20 19:15 36.077706 -115.121822 129 2121ft 5kts
28-Jul-20 19:16 36.076441 -115.121810 265 2121ft 0kts
28-Jul-20 19:17 36.076439 -115.121836 266 2121ft 0kts
28-Jul-20 19:18 36.076413 -115.138445 270 2121ft 160kts
28-Jul-20 19:19 36.077687 -115.203750 270 4165ft 215kts
28-Jul-20 19:20 36.037999 -115.271212 202 5719ft 282kts
28-Jul-20 19:21 35.961084 -115.292109 178 7525ft 291kts
28-Jul-20 19:22 35.883937 -115.260144 142 9329ft 303kts
28-Jul-20 19:23 35.842924 -115.165173 107 11161ft 342kts
28-Jul-20 19:24 35.824286 -115.043715 88 12963ft 382kts
28-Jul-20 19:25 35.833903 -114.908099 85 14771ft 409kts
28-Jul-20 19:25 35.842762 -114.789577 85 16272ft 424kts
28-Jul-20 19:26 35.852369 -114.641861 94 18070ft 437kts
28-Jul-20 19:28 35.794704 -114.484630 124 20182ft 440kts
28-Jul-20 19:28 35.739134 -114.377990 125 21685ft 446kts
28-Jul-20 19:29 35.671016 -114.249491 125 23486ft 451kts
28-Jul-20 19:30 35.602020 -114.120016 125 25109ft 459kts
28-Jul-20 19:31 35.530308 -113.986015 125 26122ft 478kts
28-Jul-20 19:32 35.455673 -113.847736 126 27124ft 494kts
28-Jul-20 19:33 35.378693 -113.705522 125 28127ft 505kts
28-Jul-20 19:34 35.301050 -113.562305 125 29123ft 503kts
28-Jul-20 19:35 35.225213 -113.422867 126 30991ft 481kts
28-Jul-20 19:36 35.149522 -113.284490 126 30991ft 499kts
28-Jul-20 19:37 35.071731 -113.142688 126 31053ft 501kts
28-Jul-20 19:38 34.993544 -113.001458 126 31119ft 501kts
28-Jul-20 19:39 34.915840 -112.861286 125 31118ft 498kts
28-Jul-20 19:40 34.838333 -112.721883 125 30492ft 496kts
28-Jul-20 19:41 34.762663 -112.586255 125 28366ft 481kts
28-Jul-20 19:42 34.678283 -112.467262 138 24440ft 460kts
28-Jul-20 19:43 34.582808 -112.365985 141 24118ft 466kts
28-Jul-20 19:44 34.486412 -112.269686 143 24118ft 412kts
28-Jul-20 19:45 34.385193 -112.218193 167 21469ft 401kts
28-Jul-20 19:46 34.278219 -112.187307 168 17826ft 381kts
28-Jul-20 19:47 34.181816 -112.161718 169 16517ft 360kts
28-Jul-20 19:48 34.084500 -112.136078 165 14974ft 343kts
28-Jul-20 19:49 33.993941 -112.099554 162 13276ft 341kts
28-Jul-20 19:50 33.905185 -112.063414 162 11629ft 325kts
28-Jul-20 19:51 33.822281 -112.029800 162 10118ft 310kts
28-Jul-20 19:52 33.742631 -111.997525 162 8968ft 297kts
28-Jul-20 19:53 33.665641 -111.966438 162 8033ft 283kts
28-Jul-20 19:54 33.591649 -111.936523 162 7652ft 281kts
28-Jul-20 19:55 33.532347 -111.885093 113 6992ft 258kts
28-Jul-20 19:56 33.525088 -111.796448 102 4748ft 274kts
28-Jul-20 19:57 33.467536 -111.771687 221 4001ft 229kts
28-Jul-20 19:58 33.439829 -111.834300 268 3324ft 191kts
28-Jul-20 19:59 33.440458 -111.890011 269 2869ft 160kts
28-Jul-20 20:00 33.440642 -111.940937 269 1994ft 153kts
28-Jul-20 20:01 33.440761 -111.992025 269 1173ft 150kts
28-Jul-20 20:02 33.440424 -112.016902 231 1119ft 11kts
28-Jul-20 20:03 33.439004 -112.015538 90 1119ft 19kts
28-Jul-20 20:04 33.438067 -112.010005 129 1119ft 10kts

Navigation Log

Ident Type
Flight plan parsing failed, navigation log unavailable